createdAt,value
2022-12-01T00:01:25.068Z,33.92
2022-12-01T00:03:52.342Z,35.13
2022-12-01T00:06:21.295Z,34.03
2022-12-01T00:09:19.245Z,32.00
2022-12-01T00:11:48.612Z,31.48
2022-12-01T00:14:16.421Z,29.45
2022-12-01T00:16:44.652Z,28.60
2022-12-01T00:19:12.139Z,30.20
2022-12-01T00:21:39.452Z,28.10
2022-12-01T00:24:07.526Z,29.20
2022-12-01T00:26:34.748Z,28.20
2022-12-01T00:29:02.098Z,26.17
2022-12-01T00:31:29.465Z,23.60
2022-12-01T00:33:56.806Z,23.83
2022-12-01T00:36:24.643Z,23.88
2022-12-01T00:38:53.739Z,22.48
2022-12-01T00:41:21.945Z,24.63
2022-12-01T00:43:50.968Z,23.02
2022-12-01T00:46:18.485Z,22.30
2022-12-01T00:48:45.874Z,21.92
2022-12-01T00:51:13.204Z,20.80
2022-12-01T00:53:41.192Z,18.88
2022-12-01T00:56:08.471Z,19.27
2022-12-01T00:58:35.806Z,19.00
2022-12-01T01:01:03.914Z,19.35
2022-12-01T01:03:33.686Z,25.80
2022-12-01T01:06:07.076Z,24.50
2022-12-01T01:08:35.180Z,23.55
2022-12-01T01:11:02.698Z,23.30
2022-12-01T01:13:30.518Z,24.58
2022-12-01T01:16:05.897Z,25.08
2022-12-01T01:18:33.349Z,22.88
2022-12-01T01:21:03.827Z,25.15
2022-12-01T01:23:31.325Z,26.35
2022-12-01T01:26:04.881Z,24.38
2022-12-01T01:28:32.641Z,25.15
2022-12-01T01:31:00.334Z,27.05
2022-12-01T01:33:27.635Z,25.75
2022-12-01T01:36:00.076Z,26.88
2022-12-01T01:38:28.558Z,27.20
2022-12-01T01:40:56.459Z,27.15
2022-12-01T01:43:43.679Z,23.95
2022-12-01T01:46:14.571Z,22.92
2022-12-01T01:48:47.034Z,24.10
2022-12-01T01:51:15.627Z,22.33
2022-12-01T01:53:45.955Z,22.52
2022-12-01T01:56:13.655Z,20.55
2022-12-01T01:58:41.817Z,20.48
2022-12-01T02:01:09.362Z,21.13
2022-12-01T02:03:39.748Z,18.92
2022-12-01T02:06:09.448Z,17.90
2022-12-01T02:08:38.199Z,18.85
2022-12-01T02:11:28.459Z,18.75
2022-12-01T02:14:14.115Z,16.80
2022-12-01T02:16:50.059Z,18.42
2022-12-01T02:19:21.673Z,17.33
2022-12-01T02:22:23.406Z,18.08
2022-12-01T02:24:50.635Z,17.10
2022-12-01T02:27:42.959Z,16.80
2022-12-01T02:30:12.247Z,16.70
2022-12-01T02:32:51.514Z,18.00
2022-12-01T02:35:40.950Z,17.17
2022-12-01T02:38:33.698Z,17.02
2022-12-01T02:41:12.633Z,18.15
2022-12-01T02:43:45.386Z,17.05
2022-12-01T02:46:32.565Z,17.98
2022-12-01T02:49:04.863Z,18.48
2022-12-01T02:51:35.845Z,18.90
2022-12-01T02:54:04.907Z,16.83
2022-12-01T02:56:32.204Z,16.70
2022-12-01T02:58:59.468Z,18.35
2022-12-01T03:01:37.895Z,18.40
2022-12-01T03:04:20.503Z,18.40
2022-12-01T03:07:12.624Z,17.23
2022-12-01T03:09:59.812Z,18.38
2022-12-01T03:13:01.033Z,18.33
2022-12-01T03:15:35.793Z,19.02
2022-12-01T03:19:01.557Z,20.65
2022-12-01T03:21:56.114Z,18.23
2022-12-01T03:24:27.032Z,17.73
2022-12-01T03:26:58.176Z,17.08
2022-12-01T03:29:30.747Z,18.38
2022-12-01T03:32:10.164Z,17.35
2022-12-01T03:35:05.961Z,17.52
2022-12-01T03:37:56.127Z,16.58
2022-12-01T03:40:27.264Z,15.85
2022-12-01T03:42:59.340Z,16.00
2022-12-01T03:45:55.533Z,15.68
2022-12-01T03:48:24.286Z,17.17
2022-12-01T03:51:04.906Z,17.50
2022-12-01T03:53:42.688Z,18.27
2022-12-01T03:56:10.661Z,18.65
2022-12-01T03:58:43.829Z,16.98
2022-12-01T04:01:12.478Z,17.20
2022-12-01T04:03:39.717Z,17.50
2022-12-01T04:06:07.251Z,16.00
2022-12-01T04:08:36.892Z,17.70
2022-12-01T04:11:32.176Z,17.13
2022-12-01T04:14:00.109Z,16.98
2022-12-01T04:16:27.489Z,19.13
2022-12-01T04:18:54.799Z,18.77
2022-12-01T04:21:22.139Z,18.95
2022-12-01T04:24:01.613Z,19.85
2022-12-01T04:26:32.276Z,19.15
2022-12-01T04:29:04.840Z,20.45
2022-12-01T04:31:32.242Z,18.33
2022-12-01T04:34:00.408Z,19.45
2022-12-01T04:36:31.299Z,20.05
2022-12-01T04:38:59.306Z,18.10
2022-12-01T04:41:26.873Z,19.05
2022-12-01T04:43:54.715Z,18.90
2022-12-01T04:46:23.081Z,19.48
2022-12-01T04:48:50.784Z,18.85
2022-12-01T04:51:18.489Z,14.70
2022-12-01T04:53:45.794Z,16.00
2022-12-01T04:56:13.127Z,15.13
2022-12-01T04:58:40.592Z,15.10
2022-12-01T05:01:10.311Z,14.85
2022-12-01T05:03:43.032Z,15.40
2022-12-01T05:06:15.937Z,14.98
2022-12-01T05:08:43.233Z,15.13
2022-12-01T05:11:12.799Z,14.40
2022-12-01T05:13:42.941Z,13.40
2022-12-01T05:16:11.785Z,15.13
2022-12-01T05:18:40.413Z,15.15
2022-12-01T05:21:10.124Z,17.05
2022-12-01T05:23:38.945Z,15.25
2022-12-01T05:26:08.958Z,14.80
2022-12-01T05:28:38.645Z,16.48
2022-12-01T05:31:06.080Z,15.45
2022-12-01T05:33:33.364Z,16.02
2022-12-01T05:36:00.743Z,15.65
2022-12-01T05:38:28.199Z,16.65
2022-12-01T05:40:56.469Z,15.68
2022-12-01T05:43:29.116Z,16.33
2022-12-01T05:45:57.750Z,16.25
2022-12-01T05:48:25.429Z,15.52
2022-12-01T05:50:52.810Z,14.70
2022-12-01T05:53:20.071Z,15.68
2022-12-01T05:55:54.478Z,15.25
2022-12-01T05:58:22.696Z,15.73
2022-12-01T06:00:49.961Z,15.02
2022-12-01T06:03:17.241Z,16.20
2022-12-01T06:05:44.552Z,15.95
2022-12-01T06:08:11.812Z,15.55
2022-12-01T06:10:39.067Z,16.65
2022-12-01T06:13:06.386Z,15.77
2022-12-01T06:15:33.616Z,14.18
2022-12-01T06:18:00.970Z,16.50
2022-12-01T06:20:28.412Z,16.05
2022-12-01T06:22:55.716Z,15.13
2022-12-01T06:25:23.165Z,15.95
2022-12-01T06:27:50.443Z,16.85
2022-12-01T06:30:17.796Z,16.25
2022-12-01T06:32:45.050Z,18.23
2022-12-01T06:35:12.694Z,16.80
2022-12-01T06:37:39.949Z,16.40
2022-12-01T06:40:07.786Z,17.45
2022-12-01T06:42:35.099Z,17.35
2022-12-01T06:45:02.813Z,14.80
2022-12-01T06:47:30.130Z,16.67
2022-12-01T06:49:57.640Z,16.70
2022-12-01T06:52:24.888Z,16.67
2022-12-01T06:54:52.309Z,15.75
2022-12-01T06:57:20.133Z,15.50
2022-12-01T06:59:48.036Z,16.52
2022-12-01T07:02:16.866Z,15.13
2022-12-01T07:04:44.348Z,15.88
2022-12-01T07:07:12.197Z,16.45
2022-12-01T07:09:39.959Z,16.05
2022-12-01T07:12:07.428Z,15.98
2022-12-01T07:14:34.916Z,16.00
2022-12-01T07:17:02.245Z,16.20
2022-12-01T07:19:29.631Z,16.48
2022-12-01T07:21:57.189Z,16.90
2022-12-01T07:24:24.444Z,15.13
2022-12-01T07:26:51.679Z,15.50
2022-12-01T07:29:19.211Z,14.85
2022-12-01T07:31:46.486Z,15.40
2022-12-01T07:34:13.895Z,16.67
2022-12-01T07:36:41.331Z,16.70
2022-12-01T07:39:08.905Z,15.13
2022-12-01T07:41:36.573Z,16.05
2022-12-01T07:44:03.960Z,16.05
2022-12-01T07:46:31.568Z,15.43
2022-12-01T07:48:59.446Z,16.65
2022-12-01T07:51:27.397Z,15.40
2022-12-01T07:53:55.214Z,17.98
2022-12-01T07:56:23.491Z,15.45
2022-12-01T07:58:51.409Z,15.95
2022-12-01T08:01:21.837Z,15.80
2022-12-01T08:03:53.319Z,14.50
2022-12-01T08:06:21.356Z,16.02
2022-12-01T08:08:49.271Z,16.85
2022-12-01T08:11:20.922Z,14.85
2022-12-01T08:13:49.024Z,16.02
2022-12-01T08:16:18.511Z,15.85
2022-12-01T08:18:46.062Z,15.95
2022-12-01T08:21:15.760Z,14.88
2022-12-01T08:23:43.990Z,15.35
2022-12-01T08:26:14.347Z,15.98
2022-12-01T08:28:41.907Z,15.05
2022-12-01T08:31:22.085Z,16.27
2022-12-01T08:33:50.635Z,14.98
2022-12-01T08:36:18.380Z,15.80
2022-12-01T08:38:47.095Z,17.40
2022-12-01T08:41:15.101Z,16.75
2022-12-01T08:44:01.041Z,14.75
2022-12-01T08:46:33.566Z,16.65
2022-12-01T08:49:02.559Z,16.00
2022-12-01T08:51:30.665Z,16.27
2022-12-01T08:53:59.870Z,17.60
2022-12-01T08:56:36.179Z,16.75
2022-12-01T08:59:04.183Z,18.03
2022-12-01T09:01:32.871Z,16.65
2022-12-01T09:04:05.703Z,16.08
2022-12-01T09:06:39.498Z,18.08
2022-12-01T09:09:08.396Z,16.75
2022-12-01T09:11:35.747Z,16.67
2022-12-01T09:14:03.223Z,18.75
2022-12-01T09:16:30.683Z,18.13
2022-12-01T09:18:58.191Z,18.35
2022-12-01T09:21:27.784Z,17.40
2022-12-01T09:23:55.240Z,17.80
2022-12-01T09:26:23.171Z,18.33
2022-12-01T09:28:53.786Z,19.23
2022-12-01T09:31:23.464Z,17.45
2022-12-01T09:33:59.760Z,16.88
2022-12-01T09:36:27.908Z,16.83
2022-12-01T09:38:55.415Z,17.85
2022-12-01T09:41:47.704Z,18.25
2022-12-01T09:44:32.707Z,18.08
2022-12-01T09:47:31.885Z,16.88
2022-12-01T09:50:07.252Z,17.55
2022-12-01T09:52:47.256Z,16.80
2022-12-01T09:55:17.290Z,17.60
2022-12-01T09:57:48.286Z,16.05
2022-12-01T10:00:42.243Z,16.85
2022-12-01T10:03:09.861Z,17.00
2022-12-01T10:06:10.303Z,17.92
2022-12-01T10:08:38.231Z,17.35
2022-12-01T10:11:34.368Z,15.40
2022-12-01T10:14:03.089Z,16.13
2022-12-01T10:16:36.771Z,17.80
2022-12-01T10:19:22.275Z,17.45
2022-12-01T10:22:17.985Z,15.30
2022-12-01T10:24:45.233Z,15.05
2022-12-01T10:27:36.038Z,16.98
2022-12-01T10:30:06.924Z,17.35
2022-12-01T10:32:53.764Z,17.90
2022-12-01T10:35:27.225Z,14.33
2022-12-01T10:37:58.350Z,15.63
2022-12-01T10:40:27.051Z,15.45
2022-12-01T10:42:55.169Z,15.30
2022-12-01T10:45:28.317Z,16.10
2022-12-01T10:48:15.305Z,16.70
2022-12-01T10:50:48.350Z,17.13
2022-12-01T10:53:31.690Z,19.13
2022-12-01T10:56:08.477Z,15.05
2022-12-01T10:59:04.498Z,16.73
2022-12-01T11:01:36.679Z,18.70
2022-12-01T11:04:19.525Z,15.65
2022-12-01T11:06:50.475Z,15.55
2022-12-01T11:09:45.869Z,16.95
2022-12-01T11:12:17.862Z,15.63
2022-12-01T11:14:49.466Z,16.42
2022-12-01T11:17:25.300Z,15.55
2022-12-01T11:19:52.932Z,14.63
2022-12-01T11:22:31.808Z,15.10
2022-12-01T11:25:01.911Z,13.77
2022-12-01T11:27:51.345Z,13.73
2022-12-01T11:30:27.016Z,14.63
2022-12-01T11:32:57.799Z,12.90
2022-12-01T11:35:36.808Z,13.68
2022-12-01T11:38:28.733Z,12.15
2022-12-01T11:40:56.367Z,11.77
2022-12-01T11:43:29.821Z,11.70
2022-12-01T11:46:01.499Z,12.05
2022-12-01T11:48:30.898Z,12.95
2022-12-01T11:51:19.548Z,11.93
2022-12-01T11:53:47.545Z,13.07
2022-12-01T11:56:30.152Z,13.02
2022-12-01T11:59:04.861Z,13.38
2022-12-01T12:01:54.160Z,12.70
2022-12-01T12:04:42.856Z,11.07
2022-12-01T12:07:48.264Z,12.27
2022-12-01T12:10:46.423Z,12.07
2022-12-01T12:13:16.525Z,13.07
2022-12-01T12:15:52.845Z,12.77
2022-12-01T12:18:47.623Z,11.43
2022-12-01T12:21:32.017Z,10.43
2022-12-01T12:24:25.636Z,11.10
2022-12-01T12:27:09.896Z,11.63
2022-12-01T12:30:01.432Z,12.13
2022-12-01T12:32:53.787Z,9.55
2022-12-01T12:35:59.217Z,11.23
2022-12-01T12:38:45.931Z,10.38
2022-12-01T12:41:29.650Z,10.30
2022-12-01T12:44:19.649Z,10.27
2022-12-01T12:46:49.662Z,9.68
2022-12-01T12:49:42.926Z,8.15
2022-12-01T12:52:22.616Z,8.65
2022-12-01T12:55:13.084Z,9.63
2022-12-01T12:57:46.937Z,8.90
2022-12-01T13:00:20.890Z,9.93
2022-12-01T13:02:54.494Z,10.07
2022-12-01T13:05:39.556Z,10.13
2022-12-01T13:08:13.945Z,10.80
2022-12-01T13:10:50.525Z,10.65
2022-12-01T13:13:39.251Z,9.70
2022-12-01T13:16:13.189Z,7.38
2022-12-01T13:18:49.533Z,6.43
2022-12-01T13:21:20.349Z,6.30
2022-12-01T13:23:49.548Z,6.28
2022-12-01T13:26:20.161Z,6.55
2022-12-01T13:28:56.288Z,5.93
2022-12-01T13:31:24.070Z,6.40
2022-12-01T13:34:01.693Z,6.18
2022-12-01T13:36:46.307Z,6.63
2022-12-01T13:39:20.340Z,6.28
2022-12-01T13:41:57.854Z,6.63
2022-12-01T13:44:36.120Z,7.28
2022-12-01T13:47:25.104Z,6.53
2022-12-01T13:49:53.297Z,6.85
2022-12-01T13:52:25.988Z,5.57
2022-12-01T13:55:08.304Z,6.40
2022-12-01T13:57:47.822Z,6.13
2022-12-01T14:00:27.355Z,4.40
2022-12-01T14:03:13.273Z,4.82
2022-12-01T14:05:40.674Z,5.22
2022-12-01T14:08:27.423Z,5.50
2022-12-01T14:11:28.360Z,5.53
2022-12-01T14:14:25.973Z,5.53
2022-12-01T14:16:58.426Z,4.85
2022-12-01T14:19:43.160Z,4.82
2022-12-01T14:22:33.488Z,4.32
2022-12-01T14:25:01.708Z,4.97
2022-12-01T14:27:39.447Z,5.90
2022-12-01T14:30:51.748Z,5.25
2022-12-01T14:33:56.606Z,4.25
2022-12-01T14:36:23.846Z,4.00
2022-12-01T14:38:57.276Z,4.78
2022-12-01T14:41:38.340Z,5.57
2022-12-01T14:44:14.009Z,6.55
2022-12-01T14:46:45.861Z,5.43
2022-12-01T14:49:22.447Z,5.15
2022-12-01T14:51:54.459Z,5.35
2022-12-01T14:54:27.763Z,6.03
2022-12-01T14:57:04.342Z,5.93
2022-12-01T14:59:33.504Z,6.15
2022-12-01T15:02:09.128Z,6.63
2022-12-01T15:05:11.054Z,6.68
2022-12-01T15:07:40.658Z,6.55
2022-12-01T15:10:34.423Z,6.60
2022-12-01T15:13:30.620Z,7.07
2022-12-01T15:16:03.581Z,6.60
2022-12-01T15:18:36.792Z,6.75
2022-12-01T15:21:12.693Z,6.53
2022-12-01T15:24:04.196Z,6.32
2022-12-01T15:26:36.880Z,7.22
2022-12-01T15:29:20.860Z,7.63
2022-12-01T15:31:53.956Z,5.85
2022-12-01T15:34:30.704Z,7.75
2022-12-01T15:36:59.308Z,8.63
2022-12-01T15:39:32.630Z,7.97
2022-12-01T15:42:00.127Z,8.25
2022-12-01T15:44:34.531Z,8.88
2022-12-01T15:47:43.858Z,9.02
2022-12-01T15:50:32.433Z,10.20
2022-12-01T15:53:06.860Z,8.52
2022-12-01T15:55:37.082Z,8.77
2022-12-01T15:58:09.258Z,9.73
2022-12-01T16:00:36.707Z,8.68
2022-12-01T16:03:04.178Z,8.65
2022-12-01T16:05:35.976Z,9.70
2022-12-01T16:08:18.399Z,9.32
2022-12-01T16:10:46.105Z,10.23
2022-12-01T16:13:52.137Z,10.98
2022-12-01T16:16:29.362Z,11.90
2022-12-01T16:21:26.826Z,11.63
2022-12-01T16:24:05.945Z,10.80
2022-12-01T16:26:33.966Z,12.38
2022-12-01T16:29:01.371Z,13.20
2022-12-01T16:31:28.692Z,15.48
2022-12-01T16:34:18.580Z,16.08
2022-12-01T16:36:50.890Z,18.20
2022-12-01T16:39:18.157Z,18.08
2022-12-01T16:41:46.772Z,20.17
2022-12-01T16:44:30.615Z,19.60
2022-12-01T16:46:57.962Z,19.48
2022-12-01T16:49:25.673Z,20.65
2022-12-01T16:51:57.033Z,21.92
2022-12-01T16:54:25.302Z,20.27
2022-12-01T16:56:52.707Z,21.80
2022-12-01T16:59:20.267Z,20.95
2022-12-01T17:01:47.764Z,21.50
2022-12-01T17:04:15.076Z,24.75
2022-12-01T17:06:42.406Z,20.67
2022-12-01T17:09:09.798Z,22.23
2022-12-01T17:11:37.102Z,21.20
2022-12-01T17:14:04.338Z,22.05
2022-12-01T17:16:31.645Z,21.20
2022-12-01T17:19:01.488Z,20.20
2022-12-01T17:21:29.112Z,22.80
2022-12-01T17:23:56.678Z,22.63
2022-12-01T17:26:24.232Z,22.65
2022-12-01T17:28:55.221Z,24.33
2022-12-01T17:31:22.628Z,26.58
2022-12-01T17:33:50.555Z,24.70
2022-12-01T17:36:18.342Z,26.45
2022-12-01T17:38:47.113Z,27.15
2022-12-01T17:41:24.750Z,27.08
2022-12-01T17:43:52.313Z,26.95
2022-12-01T17:46:19.693Z,27.95
2022-12-01T17:48:47.340Z,28.20
2022-12-01T17:51:15.001Z,27.88
2022-12-01T17:53:42.332Z,29.23
2022-12-01T17:56:12.669Z,28.83
2022-12-01T17:58:40.264Z,30.17
2022-12-01T18:01:15.373Z,29.27
2022-12-01T18:03:43.051Z,30.15
2022-12-01T18:06:11.902Z,29.88
2022-12-01T18:08:40.389Z,28.98
2022-12-01T18:11:11.720Z,28.40
2022-12-01T18:13:41.416Z,28.67
2022-12-01T18:16:13.939Z,30.02
2022-12-01T18:18:41.614Z,31.83
2022-12-01T18:21:10.519Z,32.58
2022-12-01T18:23:38.467Z,32.30
2022-12-01T18:26:15.412Z,33.42
2022-12-01T18:28:43.868Z,36.10
2022-12-01T18:31:14.053Z,31.77
2022-12-01T18:33:43.314Z,33.50
2022-12-01T18:36:19.126Z,34.70
2022-12-01T18:38:47.398Z,32.20
2022-12-01T18:41:16.107Z,36.63
2022-12-01T18:43:43.437Z,32.10
2022-12-01T18:46:12.028Z,32.42
2022-12-01T18:48:47.426Z,33.53
2022-12-01T18:51:15.365Z,32.72
2022-12-01T18:53:45.292Z,33.88
2022-12-01T18:56:15.242Z,34.40
2022-12-01T18:58:42.896Z,34.22
2022-12-01T19:01:22.026Z,36.10
2022-12-01T19:03:49.629Z,32.58
2022-12-01T19:06:17.678Z,34.33
2022-12-01T19:08:47.301Z,33.95
2022-12-01T19:11:14.817Z,34.47
2022-12-01T19:13:42.140Z,33.38
2022-12-01T19:16:12.130Z,34.22
2022-12-01T19:18:40.151Z,32.13
2022-12-01T19:21:09.995Z,32.45
2022-12-01T19:23:38.288Z,30.02
2022-12-01T19:26:07.419Z,31.42
2022-12-01T19:28:35.762Z,31.00
2022-12-01T19:31:11.528Z,31.83
2022-12-01T19:33:39.125Z,33.92
2022-12-01T19:36:15.128Z,30.88
2022-12-01T19:38:42.764Z,31.15
2022-12-01T19:41:11.020Z,29.58
2022-12-01T19:43:38.616Z,29.98
2022-12-01T19:46:11.961Z,31.35
2022-12-01T19:48:39.504Z,31.10
2022-12-01T19:51:07.288Z,29.42
2022-12-01T19:53:34.563Z,31.10
2022-12-01T19:56:05.395Z,30.05
2022-12-01T19:58:33.576Z,27.58
2022-12-01T20:01:13.001Z,33.53
2022-12-01T20:03:44.344Z,32.70
2022-12-01T20:06:15.097Z,31.27
2022-12-01T20:08:43.142Z,31.63
2022-12-01T20:11:10.688Z,31.13
2022-12-01T20:13:39.946Z,30.20
2022-12-01T20:16:10.811Z,32.58
2022-12-01T20:18:38.904Z,32.55
2022-12-01T20:21:10.945Z,30.17
2022-12-01T20:23:38.282Z,30.95
2022-12-01T20:26:07.364Z,33.15
2022-12-01T20:28:36.767Z,30.55
2022-12-01T20:31:16.060Z,31.35
2022-12-01T20:33:43.645Z,31.15
2022-12-01T20:36:11.487Z,30.17
2022-12-01T20:38:38.797Z,32.42
2022-12-01T20:41:06.577Z,31.60
2022-12-01T20:43:34.491Z,31.77
2022-12-01T20:46:02.621Z,31.00
2022-12-01T20:48:30.473Z,31.25
2022-12-01T20:51:03.692Z,29.40
2022-12-01T20:53:31.454Z,30.30
2022-12-01T20:56:06.044Z,31.15
2022-12-01T20:58:37.421Z,30.90
2022-12-01T21:01:17.073Z,32.25
2022-12-01T21:03:45.947Z,31.88
2022-12-01T21:06:15.114Z,29.63
2022-12-01T21:08:44.242Z,28.83
2022-12-01T21:11:48.657Z,29.52
2022-12-01T21:14:29.704Z,30.58
2022-12-01T21:16:59.805Z,29.08
2022-12-01T21:19:57.146Z,29.52
2022-12-01T21:22:25.256Z,26.73
2022-12-01T21:24:56.522Z,28.02
2022-12-01T21:27:23.804Z,30.08
2022-12-01T21:29:51.035Z,30.55
2022-12-01T21:32:23.454Z,30.58
2022-12-01T21:34:51.168Z,30.33
2022-12-01T21:37:23.240Z,28.35
2022-12-01T21:39:52.519Z,31.95
2022-12-01T21:42:22.818Z,28.77
2022-12-01T21:44:50.742Z,29.73
2022-12-01T21:47:22.934Z,28.02
2022-12-01T21:49:58.012Z,26.75
2022-12-01T21:52:33.599Z,28.75
2022-12-01T21:55:16.140Z,26.77
2022-12-01T21:57:48.837Z,29.08
2022-12-01T22:00:30.075Z,28.48
2022-12-01T22:03:09.341Z,27.30
2022-12-01T22:06:07.172Z,26.77
2022-12-01T22:08:37.739Z,28.70
2022-12-01T22:11:23.168Z,30.08
2022-12-01T22:13:58.957Z,28.83
2022-12-01T22:16:32.598Z,28.83
2022-12-01T22:19:21.642Z,28.35
2022-12-01T22:22:02.836Z,26.67
2022-12-01T22:24:34.783Z,28.00
2022-12-01T22:27:26.677Z,28.95
2022-12-01T22:30:06.340Z,27.17
2022-12-01T22:32:37.375Z,27.00
2022-12-01T22:35:21.435Z,29.02
2022-12-01T22:38:06.744Z,28.42
2022-12-01T22:40:43.169Z,27.77
2022-12-01T22:43:19.693Z,27.25
2022-12-01T22:45:48.452Z,25.27
2022-12-01T22:48:31.623Z,26.92
2022-12-01T22:51:14.212Z,26.73
2022-12-01T22:53:43.811Z,27.67
2022-12-01T22:56:36.599Z,27.40
2022-12-01T22:59:16.385Z,26.13
2022-12-01T23:01:48.214Z,25.80
2022-12-01T23:04:20.316Z,27.90
2022-12-01T23:07:02.736Z,25.17
2022-12-01T23:09:42.720Z,26.23
2022-12-01T23:12:09.899Z,27.08
2022-12-01T23:14:41.319Z,29.02
2022-12-01T23:17:24.284Z,26.33
2022-12-01T23:20:20.229Z,24.52
2022-12-01T23:22:48.224Z,27.52
2022-12-01T23:25:17.963Z,27.50
2022-12-01T23:27:47.349Z,27.00
2022-12-01T23:30:16.356Z,25.98
2022-12-01T23:32:44.627Z,25.80
2022-12-01T23:35:17.748Z,26.65
2022-12-01T23:37:47.409Z,23.63
2022-12-01T23:40:29.400Z,25.40
2022-12-01T23:43:27.579Z,26.40
2022-12-01T23:46:13.520Z,24.83
2022-12-01T23:48:48.302Z,25.98
2022-12-01T23:51:19.547Z,27.33
2022-12-01T23:53:47.190Z,25.40
2022-12-01T23:56:21.291Z,26.23
2022-12-01T23:58:49.130Z,26.58
